In Rescue
 
Open Full Screen Window  High Contrast Mode
November 29, 2022 7:44 AM CST
Weather Information
Wind Direction
  ---
Wind Speed
  00 kt (0 mph)
Wind Gust
  00 kt (0 mph)
Altimeter
29.64 in
Visibility
10 SM
Temperature
-04° C
25° F
Dewpoint
-04° C
25° F
Humidity
100%
1hr Rain Fall
00.00 in.
24hr Rain Fall
00.00 in.
Sky Condition
Overcast @ 9,000 ft
VFR

METAR KCKC 291344Z AUTO 00000KT 10SM OVC090 M04/M04 A2964 RMK AO2

FAA Disclaimer: The data displayed is for advisory purposes only and is not to be used for flight planning or operations.